Time;durP1;ratioP1;P1;durP2;ratioP2;P2;SDS_P1;SDS_P2;PMS_P1;PMS_P2;Temp;Humidity;BMP_temperature;BMP_pressure;BME280_temperature;BME280_humidity;BME280_pressure;Samples;Min_cycle;Max_cycle;Signal;HPM_P1;HPM_P2
2022/03/24 00:02:06;;;;;;;33.97;22.77;;;8.30;1.00;;;;;;5118252;28;20467;-72
2022/03/24 00:04:32;;;;;;;38.80;23.00;;;8.30;1.00;;;;;;5118637;28;20540;-72
2022/03/24 00:07:00;;;;;;;36.20;22.70;;;8.20;1.00;;;;;;5118847;28;20456;-72
2022/03/24 00:09:26;;;;;;;35.57;22.33;;;8.20;1.00;;;;;;5118801;28;20770;-72
2022/03/24 00:11:55;;;;;;;34.53;24.00;;;8.20;1.00;;;;;;5118696;28;20817;-72
2022/03/24 00:14:22;;;;;;;36.13;22.53;;;8.10;1.00;;;;;;5118293;28;20462;-72
2022/03/24 00:16:49;;;;;;;38.33;23.23;;;8.10;1.00;;;;;;5117414;28;20456;-72
2022/03/24 00:19:17;;;;;;;34.90;24.13;;;8.10;1.00;;;;;;5116981;28;20452;-72
2022/03/24 00:21:44;;;;;;;38.30;23.13;;;8.00;1.00;;;;;;5117595;28;20937;-72
2022/03/24 00:24:11;;;;;;;36.87;23.57;;;8.00;1.00;;;;;;5117381;28;20934;-72
2022/03/24 00:26:38;;;;;;;39.70;23.43;;;8.00;1.00;;;;;;5117486;28;20558;-72
2022/03/24 00:29:09;;;;;;;37.77;22.17;;;8.00;1.00;;;;;;5117228;28;20456;-72
2022/03/24 00:31:36;;;;;;;31.00;21.93;;;7.90;1.00;;;;;;5116886;28;20500;-72
2022/03/24 00:34:03;;;;;;;35.23;20.70;;;7.90;1.00;;;;;;5118242;28;20456;-71
2022/03/24 00:36:29;;;;;;;39.57;22.40;;;7.80;1.00;;;;;;5117039;28;20440;-72
2022/03/24 00:38:56;;;;;;;41.97;22.93;;;7.80;1.00;;;;;;5117368;28;20471;-71
2022/03/24 00:41:24;;;;;;;34.30;20.13;;;7.70;1.00;;;;;;5117312;28;20936;-72
2022/03/24 00:43:51;;;;;;;35.30;22.30;;;7.70;1.00;;;;;;5117607;28;20799;-72
2022/03/24 00:46:21;;;;;;;35.73;22.60;;;7.70;1.00;;;;;;5117523;28;20456;-72
2022/03/24 00:48:48;;;;;;;33.83;22.60;;;7.60;1.00;;;;;;5117765;28;20463;-73
2022/03/24 00:51:18;;;;;;;35.20;21.80;;;7.60;1.00;;;;;;5120998;28;20480;-72
2022/03/24 00:53:45;;;;;;;34.33;22.70;;;7.60;1.00;;;;;;5121615;28;21022;-72
2022/03/24 00:56:12;;;;;;;33.77;21.07;;;7.50;1.00;;;;;;5121479;28;20452;-72
2022/03/24 00:58:39;;;;;;;37.17;23.20;;;7.50;1.00;;;;;;5121581;28;20474;-71
2022/03/24 01:01:09;;;;;;;33.10;21.80;;;7.50;1.00;;;;;;5121288;28;20448;-71
2022/03/24 01:03:38;;;;;;;34.83;23.10;;;7.40;1.00;;;;;;5121735;28;20452;-72
2022/03/24 01:06:06;;;;;;;29.30;21.37;;;7.40;1.00;;;;;;5121375;28;20482;-71
2022/03/24 01:08:33;;;;;;;37.20;23.17;;;7.30;1.00;;;;;;5121594;28;20483;-71
2022/03/24 01:11:01;;;;;;;30.40;21.43;;;7.30;1.00;;;;;;5121349;28;20996;-72
2022/03/24 01:13:28;;;;;;;38.10;22.07;;;7.20;1.00;;;;;;5121083;28;20898;-72
2022/03/24 01:15:55;;;;;;;38.60;23.63;;;7.20;1.00;;;;;;5121344;28;20486;-71
2022/03/24 01:18:23;;;;;;;38.40;22.47;;;7.20;1.00;;;;;;5120816;28;20456;-71
2022/03/24 01:20:51;;;;;;;31.37;20.90;;;7.10;1.00;;;;;;5120664;28;20459;-71
2022/03/24 01:23:19;;;;;;;35.90;20.90;;;7.10;1.00;;;;;;5121382;28;20463;-71
2022/03/24 01:25:45;;;;;;;33.70;23.20;;;7.00;1.00;;;;;;5120610;28;20452;-72
2022/03/24 01:28:13;;;;;;;34.83;21.40;;;7.00;1.00;;;;;;5120701;28;20542;-72
2022/03/24 01:30:40;;;;;;;32.13;20.43;;;6.90;1.00;;;;;;5121115;28;20472;-72
2022/03/24 01:33:08;;;;;;;30.13;20.33;;;6.80;1.00;;;;;;5120836;28;20483;-72
2022/03/24 01:35:35;;;;;;;32.93;20.00;;;6.80;1.00;;;;;;5120350;28;20555;-72
2022/03/24 01:38:03;;;;;;;35.87;21.90;;;6.70;1.00;;;;;;5120721;28;20464;-72
2022/03/24 01:40:30;;;;;;;36.67;21.50;;;6.70;1.00;;;;;;5120387;28;20913;-71
2022/03/24 01:42:57;;;;;;;32.73;20.87;;;6.70;1.00;;;;;;5121383;28;20486;-72
2022/03/24 01:45:25;;;;;;;38.27;22.40;;;6.70;1.00;;;;;;5122318;28;20453;-72
2022/03/24 01:47:52;;;;;;;38.27;22.90;;;6.70;1.00;;;;;;5120689;28;20850;-72
2022/03/24 01:50:19;;;;;;;35.30;22.23;;;6.60;1.00;;;;;;5120201;28;20463;-73
2022/03/24 01:52:46;;;;;;;35.93;22.10;;;6.60;1.00;;;;;;5119936;28;20491;-71
2022/03/24 01:55:14;;;;;;;31.43;20.30;;;6.60;1.00;;;;;;5120140;28;20479;-72
2022/03/24 01:57:42;;;;;;;32.20;20.90;;;6.60;1.00;;;;;;5120670;28;20460;-72
2022/03/24 02:00:10;;;;;;;37.23;22.40;;;6.50;1.00;;;;;;5120712;28;20456;-72
2022/03/24 02:02:39;;;;;;;39.13;22.20;;;6.50;1.00;;;;;;5118860;28;20453;-72
2022/03/24 02:05:06;;;;;;;32.97;20.60;;;6.50;1.00;;;;;;5119849;28;20551;-73
2022/03/24 02:07:34;;;;;;;33.63;21.67;;;6.50;1.00;;;;;;5120121;28;20456;-72
2022/03/24 02:10:01;;;;;;;33.83;21.10;;;6.50;1.00;;;;;;5120155;28;20551;-72
2022/03/24 02:12:29;;;;;;;32.73;21.00;;;6.50;1.00;;;;;;5119937;28;20472;-72
2022/03/24 02:14:58;;;;;;;37.97;22.60;;;6.50;1.00;;;;;;5120844;28;20453;-72
2022/03/24 02:17:28;;;;;;;33.40;22.67;;;6.40;1.00;;;;;;5120879;28;20785;-72
2022/03/24 02:19:57;;;;;;;35.10;22.00;;;6.40;1.00;;;;;;5119072;28;20527;-70
2022/03/24 02:22:26;;;;;;;35.10;22.43;;;6.30;1.00;;;;;;5117044;28;20771;-69
2022/03/24 02:24:56;;;;;;;37.07;22.07;;;6.20;1.00;;;;;;5116960;28;20456;-70
2022/03/24 02:27:23;;;;;;;42.00;23.90;;;6.20;1.00;;;;;;5117004;28;20463;-69
2022/03/24 02:29:51;;;;;;;37.00;23.67;;;6.10;1.00;;;;;;5117579;28;20913;-69
2022/03/24 02:32:19;;;;;;;35.97;22.03;;;6.00;1.00;;;;;;5116915;28;20526;-70
2022/03/24 02:34:51;;;;;;;39.73;23.53;;;6.00;1.00;;;;;;5116523;28;20468;-69
2022/03/24 02:37:21;;;;;;;39.20;24.20;;;5.90;1.00;;;;;;5116520;28;20875;-70
2022/03/24 02:39:50;;;;;;;57.00;32.10;;;5.90;1.00;;;;;;5116986;28;20534;-70
2022/03/24 02:42:19;;;;;;;37.00;22.33;;;5.90;1.00;;;;;;5116939;28;20867;-71
2022/03/24 02:44:48;;;;;;;31.20;20.60;;;5.80;1.00;;;;;;5117188;28;20471;-71
2022/03/24 02:47:16;;;;;;;41.90;23.13;;;5.70;1.00;;;;;;5117404;28;20459;-69
2022/03/24 02:49:44;;;;;;;34.80;22.70;;;5.70;1.00;;;;;;5117694;28;20457;-70
2022/03/24 02:52:12;;;;;;;38.70;22.50;;;5.70;1.00;;;;;;5116571;28;20801;-71
2022/03/24 02:54:39;;;;;;;36.77;21.40;;;5.70;1.00;;;;;;5117335;28;20793;-70
2022/03/24 02:57:08;;;;;;;39.50;23.40;;;5.60;1.00;;;;;;5116697;28;20457;-71
2022/03/24 02:59:35;;;;;;;36.37;22.20;;;5.60;1.00;;;;;;5116506;28;20463;-70
2022/03/24 03:02:04;;;;;;;36.67;21.80;;;5.60;1.00;;;;;;5116347;28;20464;-70
2022/03/24 03:04:35;;;;;;;35.10;22.30;;;5.50;1.00;;;;;;5116613;28;20537;-70
2022/03/24 03:07:03;;;;;;;37.60;22.77;;;5.50;1.00;;;;;;5118276;28;20462;-70
2022/03/24 03:09:31;;;;;;;38.93;22.60;;;5.50;1.00;;;;;;5119439;28;20769;-70
2022/03/24 03:11:58;;;;;;;36.63;22.60;;;5.50;1.00;;;;;;5125256;28;20487;-71
2022/03/24 03:14:28;;;;;;;34.30;22.93;;;5.40;1.00;;;;;;5116833;28;20456;-70
2022/03/24 03:16:56;;;;;;;35.47;23.50;;;5.40;1.00;;;;;;5116373;28;20844;-71
2022/03/24 03:19:23;;;;;;;38.63;23.33;;;5.40;1.00;;;;;;5117275;28;20456;-70
2022/03/24 03:21:50;;;;;;;37.93;24.30;;;5.30;1.00;;;;;;5116449;28;20478;-70
2022/03/24 03:24:18;;;;;;;41.87;26.13;;;5.30;1.00;;;;;;5116085;28;20772;-70
2022/03/24 03:26:45;;;;;;;37.43;24.57;;;5.30;1.00;;;;;;5116004;28;20456;-70
2022/03/24 03:29:14;;;;;;;38.77;23.00;;;5.20;1.00;;;;;;5115919;28;20786;-70
2022/03/24 03:31:42;;;;;;;41.50;23.67;;;5.20;1.00;;;;;;5115671;28;20487;-70
2022/03/24 03:34:10;;;;;;;36.27;23.10;;;5.20;18.20;;;;;;5115763;28;20591;-70
2022/03/24 03:36:38;;;;;;;38.90;25.30;;;5.20;58.00;;;;;;5115642;28;20467;-70
2022/03/24 03:39:06;;;;;;;35.70;22.33;;;5.10;99.90;;;;;;5115579;28;20493;-70
2022/03/24 03:41:34;;;;;;;37.77;24.73;;;5.10;99.90;;;;;;5115303;28;20907;-70
2022/03/24 03:44:01;;;;;;;40.20;25.60;;;5.10;99.90;;;;;;5115721;28;20521;-70
2022/03/24 03:46:27;;;;;;;42.13;25.80;;;5.00;99.90;;;;;;5116433;28;20457;-70
2022/03/24 03:48:55;;;;;;;44.17;26.50;;;5.00;99.90;;;;;;5115292;28;20441;-70
2022/03/24 03:51:22;;;;;;;36.30;23.80;;;4.90;99.90;;;;;;5115554;28;20514;-70
2022/03/24 03:53:49;;;;;;;41.77;25.77;;;4.90;99.90;;;;;;5115131;28;20958;-70
2022/03/24 03:56:16;;;;;;;43.87;26.20;;;4.90;99.90;;;;;;5115633;28;20922;-70
2022/03/24 03:58:42;;;;;;;40.10;26.23;;;4.80;99.90;;;;;;5115762;28;20456;-70
2022/03/24 04:01:09;;;;;;;43.30;25.87;;;4.80;99.90;;;;;;5115261;28;20551;-70
2022/03/24 04:03:38;;;;;;;41.50;24.30;;;4.70;99.90;;;;;;5115623;28;20456;-70
2022/03/24 04:06:09;;;;;;;41.63;26.93;;;4.70;99.90;;;;;;5115255;28;20449;-69
2022/03/24 04:08:36;;;;;;;42.60;27.50;;;4.70;1.00;;;;;;5115894;28;20966;-70
2022/03/24 04:11:05;;;;;;;43.67;26.87;;;4.60;1.00;;;;;;5116104;28;20456;-70
2022/03/24 04:13:32;;;;;;;41.20;27.17;;;4.60;1.00;;;;;;5115156;28;20463;-69
2022/03/24 04:15:58;;;;;;;41.47;25.27;;;4.60;1.00;;;;;;5115749;28;20463;-71
2022/03/24 04:18:25;;;;;;;41.47;26.77;;;4.60;1.00;;;;;;5115293;28;20790;-69
2022/03/24 04:20:52;;;;;;;42.67;25.73;;;4.50;1.00;;;;;;5115379;28;20463;-69
2022/03/24 04:23:21;;;;;;;37.93;26.13;;;4.50;1.00;;;;;;5115286;28;20448;-70
2022/03/24 04:25:48;;;;;;;41.70;27.53;;;4.50;1.00;;;;;;5114695;28;20543;-70
2022/03/24 04:28:15;;;;;;;42.10;26.47;;;4.50;1.00;;;;;;5116007;28;20456;-70
2022/03/24 04:30:43;;;;;;;42.90;27.30;;;4.50;1.00;;;;;;5115921;28;20494;-70
2022/03/24 04:33:11;;;;;;;41.13;25.73;;;4.40;1.00;;;;;;5115868;28;20874;-71
2022/03/24 04:35:38;;;;;;;43.33;26.27;;;4.40;1.00;;;;;;5116217;28;20488;-70
2022/03/24 04:38:07;;;;;;;44.40;26.97;;;4.40;1.00;;;;;;5115951;28;20460;-70
2022/03/24 04:40:35;;;;;;;43.80;26.90;;;4.50;1.00;;;;;;5115553;28;20456;-70
2022/03/24 04:43:02;;;;;;;41.83;26.73;;;4.50;1.00;;;;;;5116046;28;20448;-70
2022/03/24 04:45:32;;;;;;;42.03;26.40;;;4.40;1.00;;;;;;5115654;28;20467;-70
2022/03/24 04:47:59;;;;;;;44.70;27.57;;;4.40;1.00;;;;;;5115384;28;20487;-70
2022/03/24 04:50:26;;;;;;;43.90;28.10;;;4.40;1.00;;;;;;5115074;28;20491;-69
2022/03/24 04:52:53;;;;;;;47.43;27.40;;;4.40;1.00;;;;;;5114574;28;20495;-70
2022/03/24 04:55:20;;;;;;;42.80;28.90;;;4.40;1.00;;;;;;5114717;28;20461;-69
2022/03/24 04:57:48;;;;;;;47.63;29.53;;;4.40;1.00;;;;;;5115169;28;20476;-69
2022/03/24 05:00:17;;;;;;;48.00;29.57;;;4.40;1.00;;;;;;5115043;28;20467;-70
2022/03/24 05:02:45;;;;;;;43.50;28.30;;;4.40;1.00;;;;;;5116326;28;20902;-70
2022/03/24 05:05:12;;;;;;;43.50;27.40;;;4.30;1.00;;;;;;5117682;28;20463;-70
2022/03/24 05:07:39;;;;;;;43.80;27.67;;;4.30;1.00;;;;;;5116921;28;20467;-69
2022/03/24 05:10:07;;;;;;;50.33;28.80;;;4.30;1.00;;;;;;5116150;28;20475;-70
2022/03/24 05:12:34;;;;;;;49.77;28.93;;;4.30;1.00;;;;;;5114868;28;20566;-69
2022/03/24 05:15:02;;;;;;;51.63;30.30;;;4.30;22.80;;;;;;5114754;28;20463;-69
2022/03/24 05:17:29;;;;;;;49.20;29.27;;;4.30;40.30;;;;;;5114831;28;20910;-69
2022/03/24 05:19:56;;;;;;;49.60;29.40;;;4.30;49.30;;;;;;5114670;28;20457;-69
2022/03/24 05:22:23;;;;;;;48.93;29.90;;;4.30;99.90;;;;;;5115035;28;20456;-70
2022/03/24 05:24:49;;;;;;;48.17;30.00;;;4.30;99.90;;;;;;5114997;28;20456;-70
2022/03/24 05:27:16;;;;;;;49.90;30.70;;;4.30;99.90;;;;;;5114675;28;20956;-70
2022/03/24 05:29:43;;;;;;;50.60;30.37;;;4.30;99.90;;;;;;5114917;28;20452;-69
2022/03/24 05:32:11;;;;;;;48.90;29.77;;;4.30;99.90;;;;;;5114999;28;20487;-69
2022/03/24 05:34:38;;;;;;;51.40;30.90;;;4.30;99.90;;;;;;5115088;28;20520;-69
2022/03/24 05:37:05;;;;;;;49.30;29.90;;;4.30;99.90;;;;;;5117985;28;20469;-69
2022/03/24 05:39:32;;;;;;;44.97;29.20;;;4.30;99.90;;;;;;5118935;28;20464;-70
2022/03/24 05:42:02;;;;;;;48.93;29.70;;;4.30;99.90;;;;;;5119076;28;20460;-70
2022/03/24 05:44:29;;;;;;;48.63;30.77;;;4.30;99.90;;;;;;5118881;28;20452;-70
2022/03/24 05:46:56;;;;;;;52.80;30.27;;;4.30;1.00;;;;;;5119551;28;20536;-72
2022/03/24 05:49:24;;;;;;;52.70;30.50;;;4.40;1.00;;;;;;5119603;28;20452;-71
2022/03/24 05:51:51;;;;;;;56.57;31.40;;;4.40;1.00;;;;;;5118690;28;20472;-72
2022/03/24 05:54:19;;;;;;;46.53;29.03;;;4.40;1.00;;;;;;5119136;28;20437;-72
2022/03/24 05:56:46;;;;;;;53.87;30.80;;;4.40;1.00;;;;;;5119253;28;20448;-72
2022/03/24 05:59:13;;;;;;;47.40;29.07;;;4.40;1.00;;;;;;5118800;28;20467;-72
2022/03/24 06:01:41;;;;;;;49.77;30.20;;;4.50;1.00;;;;;;5118296;28;20542;-71
2022/03/24 06:04:09;;;;;;;64.77;34.00;;;4.50;1.00;;;;;;5118776;28;20460;-71
2022/03/24 06:06:37;;;;;;;54.03;30.47;;;4.50;1.00;;;;;;5118407;28;20686;-71
2022/03/24 06:09:06;;;;;;;56.03;32.33;;;4.50;1.00;;;;;;5117999;28;20624;-71
2022/03/24 06:11:35;;;;;;;48.70;31.37;;;4.60;1.00;;;;;;5118899;28;20767;-72
2022/03/24 06:14:02;;;;;;;52.90;30.77;;;4.60;1.00;;;;;;5119079;28;20535;-72
2022/03/24 06:16:29;;;;;;;46.60;30.63;;;4.60;1.00;;;;;;5118633;28;20922;-72
2022/03/24 06:18:56;;;;;;;52.70;32.50;;;4.70;1.00;;;;;;5118973;28;20449;-72
2022/03/24 06:21:23;;;;;;;49.47;31.37;;;4.80;1.00;;;;;;5119193;28;20968;-71
2022/03/24 06:23:51;;;;;;;48.47;30.30;;;4.80;1.00;;;;;;5119030;28;20487;-72
2022/03/24 06:26:20;;;;;;;50.60;31.60;;;4.90;99.90;;;;;;5118661;28;20922;-72
2022/03/24 06:28:48;;;;;;;54.27;32.90;;;4.90;99.90;;;;;;5118618;28;20835;-71
2022/03/24 06:31:15;;;;;;;52.33;31.97;;;5.00;99.90;;;;;;5118368;28;20453;-72
2022/03/24 06:33:42;;;;;;;57.10;33.40;;;5.00;99.90;;;;;;5117124;28;20503;-72
2022/03/24 06:36:09;;;;;;;52.90;32.73;;;5.00;99.90;;;;;;5118200;28;20456;-71
2022/03/24 06:38:36;;;;;;;52.70;31.67;;;5.10;99.90;;;;;;5117930;28;20485;-73
2022/03/24 06:41:05;;;;;;;54.57;33.07;;;5.10;99.90;;;;;;5118339;28;20914;-71
2022/03/24 06:43:32;;;;;;;54.50;32.10;;;5.10;99.90;;;;;;5117747;28;20913;-72
2022/03/24 06:45:59;;;;;;;53.43;32.10;;;5.20;99.90;;;;;;5117967;28;20453;-71
2022/03/24 06:48:25;;;;;;;47.83;33.23;;;5.20;99.90;;;;;;5117343;28;20796;-72
2022/03/24 06:50:52;;;;;;;56.27;35.27;;;5.30;99.90;;;;;;5118236;28;20460;-72
2022/03/24 06:53:19;;;;;;;53.30;33.50;;;5.40;67.80;;;;;;5117954;28;20491;-72
2022/03/24 06:55:45;;;;;;;50.07;32.67;;;5.40;6.10;;;;;;5117838;28;20894;-73
2022/03/24 06:58:13;;;;;;;62.50;31.97;;;5.50;1.00;;;;;;5118936;28;20457;-74
2022/03/24 07:00:40;;;;;;;51.70;32.50;;;5.60;1.00;;;;;;5118803;28;20452;-72
2022/03/24 07:03:07;;;;;;;58.70;35.10;;;5.60;1.00;;;;;;5118582;28;20836;-71
2022/03/24 07:05:33;;;;;;;51.53;32.47;;;5.80;1.00;;;;;;5118569;28;20782;-72
2022/03/24 07:08:02;;;;;;;49.03;31.93;;;5.80;1.00;;;;;;5116972;28;20468;-72
2022/03/24 07:10:29;;;;;;;46.93;29.83;;;5.90;1.00;;;;;;5115955;28;20551;-73
2022/03/24 07:12:56;;;;;;;47.30;31.50;;;6.00;1.00;;;;;;5116733;28;20476;-72
2022/03/24 07:15:26;;;;;;;54.40;32.40;;;6.10;1.00;;;;;;5115903;28;20456;-72
2022/03/24 07:17:52;;;;;;;49.97;30.40;;;6.20;1.00;;;;;;5116069;28;20576;-71
2022/03/24 07:20:20;;;;;;;48.50;32.27;;;6.20;1.00;;;;;;5115498;28;20764;-71
2022/03/24 07:22:47;;;;;;;51.70;33.33;;;6.30;1.00;;;;;;5115502;28;20562;-73
2022/03/24 07:25:14;;;;;;;52.50;32.67;;;6.40;99.90;;;;;;5115665;28;20487;-72
2022/03/24 07:27:42;;;;;;;48.80;31.97;;;6.50;99.90;;;;;;5115456;28;20456;-69
2022/03/24 07:30:12;;;;;;;52.10;32.40;;;6.60;99.90;;;;;;5116052;28;20543;-72
2022/03/24 07:32:50;;;;;;;47.03;31.77;;;6.60;99.90;;;;;;5116124;28;20481;-73
2022/03/24 07:35:19;;;;;;;52.70;31.10;;;6.60;99.90;;;;;;5115484;28;20922;-70
2022/03/24 07:37:47;;;;;;;48.57;32.40;;;6.80;99.90;;;;;;5115197;28;20490;-70
2022/03/24 07:40:18;;;;;;;54.53;32.13;;;6.80;99.90;;;;;;5115062;28;20452;-69
2022/03/24 07:42:45;;;;;;;48.27;31.50;;;6.90;99.90;;;;;;5115313;28;20441;-70
2022/03/24 07:45:12;;;;;;;44.50;30.77;;;7.00;99.90;;;;;;5114836;28;20463;-70
2022/03/24 07:48:11;;;;;;;54.43;31.00;;;7.10;99.90;;;;;;5115314;28;20499;-70
2022/03/24 07:50:39;;;;;;;49.43;32.43;;;7.20;99.90;;;;;;5115082;28;20433;-70
2022/03/24 07:53:17;;;;;;;48.30;33.70;;;7.30;99.90;;;;;;5114504;28;20484;-69
2022/03/24 07:55:46;;;;;;;48.70;29.27;;;7.40;99.90;;;;;;5115657;28;20465;-69
2022/03/24 07:58:15;;;;;;;48.73;31.60;;;7.50;99.90;;;;;;5115254;28;20521;-71
2022/03/24 08:00:43;;;;;;;48.47;31.17;;;7.50;99.90;;;;;;5114667;28;20464;-71
2022/03/24 08:03:14;;;;;;;50.13;31.30;;;7.60;99.90;;;;;;5115281;28;20448;-71
2022/03/24 08:05:40;;;;;;;46.77;30.50;;;7.80;99.90;;;;;;5115578;28;20447;-71
2022/03/24 08:08:09;;;;;;;50.27;32.83;;;7.90;68.80;;;;;;5114972;28;20464;-70
2022/03/24 08:10:36;;;;;;;48.43;31.67;;;7.90;89.60;;;;;;5114788;28;20457;-70
2022/03/24 08:13:03;;;;;;;46.80;30.27;;;7.90;67.60;;;;;;5114977;28;20942;-70
2022/03/24 08:15:29;;;;;;;46.23;31.53;;;8.00;50.20;;;;;;5115162;28;20471;-70
2022/03/24 08:17:56;;;;;;;58.80;34.90;;;8.10;32.30;;;;;;5115165;28;20747;-71
2022/03/24 08:20:25;;;;;;;50.93;33.00;;;8.20;25.20;;;;;;5115509;28;20464;-71
2022/03/24 08:22:52;;;;;;;51.20;33.20;;;8.30;3.60;;;;;;5117898;28;20452;-70
2022/03/24 08:25:19;;;;;;;51.43;33.13;;;8.40;1.00;;;;;;5116327;28;20497;-70
2022/03/24 08:27:45;;;;;;;50.40;31.90;;;8.60;1.00;;;;;;5115267;28;20463;-70
2022/03/24 08:30:13;;;;;;;51.77;30.40;;;8.60;1.00;;;;;;5115852;28;20456;-70
2022/03/24 08:32:40;;;;;;;49.07;30.33;;;8.70;1.00;;;;;;5114882;28;20592;-70
2022/03/24 08:35:08;;;;;;;56.10;35.20;;;8.90;1.00;;;;;;5115408;28;20452;-70
2022/03/24 08:37:36;;;;;;;79.63;44.10;;;9.00;1.00;;;;;;5115176;28;20914;-70
2022/03/24 08:40:03;;;;;;;48.27;32.60;;;9.10;1.00;;;;;;5114948;28;20772;-71
2022/03/24 08:42:30;;;;;;;51.27;30.83;;;9.20;1.00;;;;;;5115673;28;20456;-70
2022/03/24 08:44:56;;;;;;;50.63;30.50;;;9.30;1.00;;;;;;5114801;28;20467;-70
2022/03/24 08:47:23;;;;;;;40.77;28.70;;;9.50;1.00;;;;;;5114703;28;20463;-70
2022/03/24 08:49:50;;;;;;;50.83;28.90;;;9.50;1.00;;;;;;5114800;28;20456;-69
2022/03/24 08:52:17;;;;;;;47.20;30.20;;;9.50;1.00;;;;;;5114497;28;20486;-69
2022/03/24 08:54:45;;;;;;;42.17;29.97;;;9.60;1.00;;;;;;5114616;28;20480;-71
2022/03/24 08:57:12;;;;;;;49.53;31.20;;;9.70;1.00;;;;;;5115479;28;20497;-70
2022/03/24 08:59:38;;;;;;;56.40;31.83;;;9.90;1.00;;;;;;5115544;28;20471;-70
2022/03/24 09:02:06;;;;;;;48.63;29.10;;;10.00;1.00;;;;;;5115346;28;20464;-71
2022/03/24 09:04:32;;;;;;;42.73;28.20;;;10.00;1.00;;;;;;5115290;28;20448;-70
2022/03/24 09:06:59;;;;;;;66.43;40.87;;;10.10;1.00;;;;;;5115470;28;20882;-69
2022/03/24 09:09:26;;;;;;;59.10;39.13;;;10.20;1.00;;;;;;5114741;28;20461;-70
2022/03/24 09:11:55;;;;;;;45.10;27.40;;;10.30;1.00;;;;;;5117508;28;20467;-70
2022/03/24 09:14:22;;;;;;;50.10;27.60;;;10.40;1.00;;;;;;5118662;28;20856;-69
2022/03/24 09:16:49;;;;;;;44.80;28.37;;;10.50;1.00;;;;;;5118201;28;20534;-71
2022/03/24 09:19:15;;;;;;;37.20;24.60;;;10.50;1.00;;;;;;5117974;28;20456;-70
2022/03/24 09:21:42;;;;;;;39.00;26.27;;;10.50;1.00;;;;;;5118491;28;20809;-69
2022/03/24 09:24:09;;;;;;;38.80;25.60;;;10.60;1.00;;;;;;5118697;28;20453;-71
2022/03/24 09:26:37;;;;;;;37.63;24.53;;;10.60;1.00;;;;;;5118317;28;20492;-70
2022/03/24 09:29:05;;;;;;;41.07;26.17;;;10.70;1.00;;;;;;5118295;28;20460;-73
2022/03/24 09:31:32;;;;;;;41.23;27.53;;;10.90;1.00;;;;;;5120039;28;20844;-71
2022/03/24 09:33:59;;;;;;;38.03;25.47;;;11.00;1.00;;;;;;5119125;28;20483;-72
2022/03/24 09:36:27;;;;;;;34.10;24.07;;;11.10;1.00;;;;;;5117795;28;20463;-72
2022/03/24 09:38:54;;;;;;;370.33;221.37;;;11.20;1.00;;;;;;5117906;28;20456;-72
2022/03/24 09:41:21;;;;;;;42.90;28.73;;;11.30;1.00;;;;;;5117692;28;20938;-72
2022/03/24 09:43:48;;;;;;;36.13;24.77;;;11.50;1.00;;;;;;5117670;28;20463;-72
2022/03/24 09:46:20;;;;;;;32.67;20.97;;;11.70;1.00;;;;;;5118046;28;20983;-74
2022/03/24 09:48:47;;;;;;;37.20;21.07;;;11.80;1.00;;;;;;5116961;28;20463;-72
2022/03/24 09:51:15;;;;;;;30.13;20.07;;;11.90;1.00;;;;;;5117356;28;20851;-72
2022/03/24 09:53:42;;;;;;;44.30;27.17;;;12.00;1.00;;;;;;5117066;28;20495;-73
2022/03/24 09:56:08;;;;;;;36.10;23.13;;;12.10;1.00;;;;;;5117451;28;20764;-73
2022/03/24 09:58:35;;;;;;;28.97;18.80;;;12.20;1.00;;;;;;5117409;28;20488;-73
2022/03/24 10:01:02;;;;;;;26.47;18.83;;;12.30;1.00;;;;;;5117333;28;20456;-73
2022/03/24 10:03:30;;;;;;;30.63;20.00;;;12.30;1.00;;;;;;5117608;28;20786;-73
2022/03/24 10:05:59;;;;;;;27.83;18.27;;;12.40;1.00;;;;;;5117412;28;20464;-72
2022/03/24 10:08:27;;;;;;;69.17;44.40;;;12.50;1.00;;;;;;5117548;28;20766;-73
2022/03/24 10:10:58;;;;;;;30.97;18.80;;;12.50;1.00;;;;;;5117506;28;20513;-73
2022/03/24 10:13:40;;;;;;;27.20;17.60;;;12.60;1.00;;;;;;5117062;28;20464;-73
2022/03/24 10:16:08;;;;;;;25.53;16.83;;;12.60;1.00;;;;;;5117215;28;20452;-73
2022/03/24 10:18:36;;;;;;;29.87;19.77;;;12.60;1.00;;;;;;5117501;28;20523;-73
2022/03/24 10:21:04;;;;;;;32.17;19.23;;;12.70;1.00;;;;;;5117627;28;20467;-73
2022/03/24 10:23:33;;;;;;;31.47;20.83;;;12.70;1.00;;;;;;5115630;28;20484;-73
2022/03/24 10:26:05;;;;;;;36.00;19.60;;;12.80;1.00;;;;;;5116793;28;20456;-74
2022/03/24 10:28:32;;;;;;;29.43;17.10;;;12.80;1.00;;;;;;5116773;28;20837;-72
2022/03/24 10:31:02;;;;;;;28.43;20.80;;;12.80;1.00;;;;;;5116331;28;20994;-72
2022/03/24 10:33:30;;;;;;;32.13;19.17;;;12.90;1.00;;;;;;5116450;28;20785;-72
2022/03/24 10:36:10;;;;;;;29.83;19.80;;;13.00;1.00;;;;;;5116299;28;20467;-73
2022/03/24 10:38:39;;;;;;;25.03;16.80;;;13.20;1.00;;;;;;5116695;28;20463;-74
2022/03/24 10:41:17;;;;;;;28.13;19.50;;;13.30;1.00;;;;;;5116708;28;20474;-73
2022/03/24 10:43:44;;;;;;;22.97;16.20;;;13.30;1.00;;;;;;5116766;28;20472;-72
2022/03/24 10:46:16;;;;;;;24.30;17.00;;;13.40;1.00;;;;;;5116965;28;20894;-73
2022/03/24 10:48:43;;;;;;;27.90;16.17;;;13.50;1.00;;;;;;5116933;28;20899;-74
2022/03/24 10:51:12;;;;;;;30.57;18.47;;;13.60;1.00;;;;;;5116520;28;20483;-72
2022/03/24 10:53:40;;;;;;;27.50;15.70;;;13.70;1.00;;;;;;5115641;28;20476;-72
2022/03/24 10:56:12;;;;;;;25.90;16.27;;;13.80;1.00;;;;;;5116018;28;20453;-72
2022/03/24 10:58:46;;;;;;;25.67;17.57;;;13.80;1.00;;;;;;5116433;28;20433;-72
2022/03/24 11:01:15;;;;;;;30.53;19.43;;;13.90;1.00;;;;;;5116454;28;20453;-73
2022/03/24 11:03:43;;;;;;;28.90;18.63;;;13.90;1.00;;;;;;5116024;28;20452;-72
2022/03/24 11:06:13;;;;;;;30.33;17.90;;;14.00;1.00;;;;;;5115756;28;20848;-73
2022/03/24 11:08:42;;;;;;;28.77;18.00;;;14.10;1.00;;;;;;5115802;28;20451;-72
2022/03/24 11:11:11;;;;;;;25.20;18.10;;;14.30;1.00;;;;;;5115881;28;20452;-73
2022/03/24 11:13:45;;;;;;;29.27;16.70;;;14.40;1.00;;;;;;5115169;28;21030;-72
2022/03/24 11:16:12;;;;;;;24.80;16.07;;;14.50;1.00;;;;;;5115478;28;20467;-72
2022/03/24 11:18:40;;;;;;;25.97;17.17;;;14.60;1.00;;;;;;5115510;28;20448;-71
2022/03/24 11:21:13;;;;;;;22.77;15.40;;;14.60;1.00;;;;;;5115596;28;20456;-73
2022/03/24 11:23:40;;;;;;;22.80;14.67;;;14.70;1.00;;;;;;5115902;28;20544;-73
2022/03/24 11:26:08;;;;;;;23.40;14.93;;;14.80;1.00;;;;;;5115942;28;20460;-73
2022/03/24 11:28:36;;;;;;;26.87;14.93;;;14.90;1.00;;;;;;5115591;28;20463;-73
2022/03/24 11:31:06;;;;;;;19.67;13.60;;;15.10;1.00;;;;;;5116256;28;20829;-73
2022/03/24 11:33:42;;;;;;;20.33;13.50;;;15.20;1.00;;;;;;5114887;28;20467;-72
2022/03/24 11:36:12;;;;;;;22.70;14.70;;;15.40;1.00;;;;;;5114728;28;20472;-72
2022/03/24 11:38:40;;;;;;;19.37;13.27;;;15.90;1.00;;;;;;5114649;28;20452;-73
2022/03/24 11:41:11;;;;;;;23.57;14.10;;;16.40;1.00;;;;;;5115313;28;20453;-73
2022/03/24 11:43:44;;;;;;;20.23;12.97;;;16.90;1.00;;;;;;5115448;28;20802;-72
2022/03/24 11:46:12;;;;;;;20.73;13.37;;;17.50;1.00;;;;;;5115646;28;20444;-72
2022/03/24 11:48:41;;;;;;;17.43;12.90;;;17.80;1.00;;;;;;5116312;28;20482;-72
2022/03/24 11:51:23;;;;;;;21.60;13.53;;;17.90;1.00;;;;;;5115708;28;20456;-75
2022/03/24 11:54:01;;;;;;;17.07;12.30;;;17.90;1.00;;;;;;5116035;28;20483;-73
2022/03/24 11:56:29;;;;;;;22.90;13.93;;;17.90;1.00;;;;;;5119676;28;20476;-74
2022/03/24 11:59:18;;;;;;;20.10;13.53;;;18.10;1.00;;;;;;5115233;28;20922;-72
2022/03/24 12:01:46;;;;;;;18.83;13.10;;;18.80;1.00;;;;;;5115208;28;20436;-73
2022/03/24 12:04:14;;;;;;;21.93;14.03;;;19.80;1.00;;;;;;5115207;28;20455;-73
2022/03/24 12:06:58;;;;;;;17.73;12.30;;;20.90;1.00;;;;;;5117428;28;20494;-74
2022/03/24 12:09:32;;;;;;;16.80;12.23;;;21.70;1.00;;;;;;5116715;28;20806;-71
2022/03/24 12:12:13;;;;;;;18.37;12.03;;;22.60;1.00;;;;;;5114040;28;20472;-70
2022/03/24 12:14:45;;;;;;;18.03;12.17;;;23.30;1.00;;;;;;5114876;28;20464;-73
2022/03/24 12:17:21;;;;;;;14.40;11.43;;;23.80;1.00;;;;;;5114631;28;20448;-73
2022/03/24 12:19:50;;;;;;;19.20;11.80;;;24.20;1.00;;;;;;5115318;28;20875;-73
2022/03/24 12:22:43;;;;;;;23.33;16.70;;;24.90;1.00;;;;;;5114012;28;20510;-73
2022/03/24 12:25:25;;;;;;;14.83;10.13;;;25.40;1.00;;;;;;5114086;28;20952;-73
2022/03/24 12:28:00;;;;;;;16.93;12.67;;;25.60;1.00;;;;;;5114192;28;20472;-73
2022/03/24 12:30:40;;;;;;;19.63;12.00;;;25.50;1.00;;;;;;5114521;28;20440;-73
2022/03/24 12:33:09;;;;;;;16.97;11.50;;;25.80;1.00;;;;;;5114130;28;20451;-73
2022/03/24 12:35:41;;;;;;;17.40;11.57;;;26.10;1.00;;;;;;5114057;28;20989;-73
2022/03/24 12:38:43;;;;;;;15.13;12.00;;;26.30;1.00;;;;;;5115192;28;20464;-73
2022/03/24 12:41:21;;;;;;;18.83;11.60;;;26.40;1.00;;;;;;5114049;28;20491;-72
2022/03/24 12:43:52;;;;;;;15.37;12.10;;;26.30;1.00;;;;;;5114336;28;20432;-73
2022/03/24 12:46:23;;;;;;;26.03;12.80;;;26.20;1.00;;;;;;5116388;28;20440;-74
2022/03/24 12:48:53;;;;;;;22.43;12.77;;;26.00;1.00;;;;;;5119097;28;20539;-73